Time;durP1;ratioP1;P1;durP2;ratioP2;P2;SDS_P1;SDS_P2;PMS_P1;PMS_P2;Temp;Humidity;BMP_temperature;BMP_pressure;BME280_temperature;BME280_humidity;BME280_pressure;Samples;Min_cycle;Max_cycle;Signal;HPM_P1;HPM_P2
2022/06/15 00:00:12;;;;;;;4.43;2.72;;;;;;;;;;5110810;28;20018;-71
2022/06/15 00:02:38;;;;;;;4.88;2.70;;;;;;;;;;5111317;28;20420;-69
2022/06/15 00:06:27;;;;;;;5.22;2.47;;;;;;;;;;5111042;27;20406;-70
2022/06/15 00:08:54;;;;;;;4.32;2.42;;;;;;;;;;5111206;28;20030;-70
2022/06/15 00:13:33;;;;;;;4.00;2.75;;;;;;;;;;5111092;27;20397;-70
2022/06/15 00:16:46;;;;;;;5.03;2.63;;;;;;;;;;5111372;27;20392;-70
2022/06/15 00:19:47;;;;;;;4.22;2.53;;;;;;;;;;5111299;27;20410;-70
2022/06/15 00:22:45;;;;;;;5.05;2.78;;;;;;;;;;5111741;27;20418;-69
2022/06/15 00:27:20;;;;;;;4.28;2.47;;;;;;;;;;5111110;27;20385;-70
2022/06/15 00:29:46;;;;;;;4.78;2.55;;;;;;;;;;5111180;28;20089;-70
2022/06/15 00:34:06;;;;;;;5.90;2.90;;;;;;;;;;5111362;27;20393;-70
2022/06/15 00:36:32;;;;;;;3.67;2.40;;;;;;;;;;5111545;28;20035;-70
2022/06/15 00:38:59;;;;;;;6.97;2.95;;;;;;;;;;5111226;28;20078;-70
2022/06/15 00:43:05;;;;;;;6.25;2.25;;;;;;;;;;5111656;27;20569;-69
2022/06/15 00:45:31;;;;;;;3.80;2.70;;;;;;;;;;5111237;28;20035;-69
2022/06/15 00:47:57;;;;;;;4.82;2.45;;;;;;;;;;5110723;28;20090;-70
2022/06/15 00:50:50;;;;;;;6.20;2.92;;;;;;;;;;5111406;27;20561;-70
2022/06/15 00:53:17;;;;;;;5.85;3.08;;;;;;;;;;5111360;28;20507;-69
2022/06/15 00:55:43;;;;;;;5.18;2.92;;;;;;;;;;5110823;28;20027;-69
2022/06/15 00:59:53;;;;;;;4.28;2.72;;;;;;;;;;5173346;27;20110;-69
2022/06/15 01:04:08;;;;;;;4.75;2.63;;;;;;;;;;5111314;27;20400;-70
2022/06/15 01:06:51;;;;;;;4.57;2.10;;;;;;;;;;5111211;28;20115;-70
2022/06/15 01:09:22;;;;;;;4.47;2.50;;;;;;;;;;5110797;28;20051;-70
2022/06/15 01:13:48;;;;;;;4.55;2.42;;;;;;;;;;5111826;27;20546;-70
2022/06/15 01:17:44;;;;;;;5.18;2.95;;;;;;;;;;5111045;27;20423;-70
2022/06/15 01:20:10;;;;;;;4.78;2.42;;;;;;;;;;5111276;28;20487;-70
2022/06/15 01:23:11;;;;;;;6.85;3.58;;;;;;;;;;5111412;27;20385;-69
2022/06/15 01:25:41;;;;;;;5.32;2.60;;;;;;;;;;5111272;28;20024;-70
2022/06/15 01:29:19;;;;;;;3.95;2.50;;;;;;;;;;5111595;27;20389;-70
2022/06/15 01:31:57;;;;;;;4.53;2.90;;;;;;;;;;5111251;28;20024;-70
2022/06/15 01:34:32;;;;;;;7.72;3.10;;;;;;;;;;5111699;28;20089;-69
2022/06/15 01:41:02;;;;;;;5.03;2.55;;;;;;;;;;5111782;27;20422;-69
2022/06/15 01:43:31;;;;;;;3.92;2.35;;;;;;;;;;5109564;28;20032;-71
2022/06/15 01:45:59;;;;;;;5.93;2.80;;;;;;;;;;5111218;28;20028;-69
2022/06/15 01:51:39;;;;;;;4.70;2.88;;;;;;;;;;5111320;27;20457;-69
2022/06/15 01:54:08;;;;;;;4.13;2.45;;;;;;;;;;5111244;28;20036;-69
2022/06/15 01:58:27;;;;;;;6.57;2.40;;;;;;;;;;5111225;27;20422;-69
2022/06/15 02:02:30;;;;;;;7.88;2.50;;;;;;;;;;5111602;27;20422;-69
2022/06/15 02:05:04;;;;;;;6.95;2.50;;;;;;;;;;5110905;28;20111;-69
2022/06/15 02:10:51;;;;;;;5.18;2.67;;;;;;;;;;5111872;27;20418;-70
2022/06/15 02:13:22;;;;;;;4.80;2.50;;;;;;;;;;5111064;28;20039;-70
2022/06/15 02:15:50;;;;;;;5.28;2.75;;;;;;;;;;5111320;28;20020;-70
2022/06/15 02:18:46;;;;;;;5.03;2.70;;;;;;;;;;5111674;27;20738;-69
2022/06/15 02:22:54;;;;;;;4.05;2.47;;;;;;;;;;5111907;27;20457;-69
2022/06/15 02:26:04;;;;;;;4.57;2.80;;;;;;;;;;5111257;27;20426;-70
2022/06/15 02:28:50;;;;;;;5.85;2.97;;;;;;;;;;5111627;27;20381;-70
2022/06/15 02:35:42;;;;;;;3.60;2.63;;;;;;;;;;5111618;27;20418;-70
2022/06/15 02:38:09;;;;;;;5.47;3.10;;;;;;;;;;5111290;28;20118;-70
2022/06/15 02:41:05;;;;;;;5.20;3.08;;;;;;;;;;5110980;27;20396;-69
2022/06/15 02:43:32;;;;;;;5.07;2.78;;;;;;;;;;5111293;28;20024;-70
2022/06/15 02:46:00;;;;;;;4.65;2.47;;;;;;;;;;5111349;28;20189;-70
2022/06/15 02:48:26;;;;;;;7.63;2.80;;;;;;;;;;5110830;28;20503;-70
2022/06/15 02:50:58;;;;;;;5.95;2.92;;;;;;;;;;5111176;28;20031;-70
2022/06/15 02:53:25;;;;;;;6.00;3.28;;;;;;;;;;5111119;28;20510;-69
2022/06/15 02:55:53;;;;;;;5.70;3.03;;;;;;;;;;5110646;28;20024;-70
2022/06/15 02:58:27;;;;;;;6.43;2.60;;;;;;;;;;5111487;28;20111;-69
2022/06/15 03:00:54;;;;;;;4.90;2.55;;;;;;;;;;5110489;28;20044;-69
2022/06/15 03:03:22;;;;;;;4.47;2.40;;;;;;;;;;5110934;28;20028;-69
2022/06/15 03:05:49;;;;;;;4.28;2.53;;;;;;;;;;5110822;28;20027;-70
2022/06/15 03:08:30;;;;;;;5.88;2.80;;;;;;;;;;5131639;27;20379;-70
2022/06/15 03:10:57;;;;;;;7.97;3.10;;;;;;;;;;5132017;28;20027;-70
2022/06/15 03:13:23;;;;;;;5.75;3.00;;;;;;;;;;5131728;28;20011;-69
2022/06/15 03:15:49;;;;;;;6.32;2.92;;;;;;;;;;5131314;27;20076;-70
2022/06/15 03:20:28;;;;;;;5.75;2.47;;;;;;;;;;5111373;27;20385;-70
2022/06/15 03:22:54;;;;;;;9.25;3.10;;;;;;;;;;5111080;28;20023;-70
2022/06/15 03:25:20;;;;;;;5.05;2.80;;;;;;;;;;5111335;28;20049;-70
2022/06/15 03:28:19;;;;;;;6.55;2.67;;;;;;;;;;5112132;27;20406;-70
2022/06/15 03:30:45;;;;;;;3.90;2.47;;;;;;;;;;5110851;28;20055;-70
2022/06/15 03:33:12;;;;;;;4.85;2.80;;;;;;;;;;5111264;28;20085;-70
2022/06/15 03:35:39;;;;;;;6.55;2.92;;;;;;;;;;5111167;28;20016;-70
2022/06/15 03:38:09;;;;;;;4.00;2.55;;;;;;;;;;5110801;28;20035;-70
2022/06/15 03:40:39;;;;;;;6.00;3.00;;;;;;;;;;5111592;28;20027;-70
2022/06/15 03:43:05;;;;;;;8.93;3.28;;;;;;;;;;5110698;28;20102;-70
2022/06/15 03:47:00;;;;;;;5.45;2.83;;;;;;;;;;5111962;27;20888;-70
2022/06/15 03:50:11;;;;;;;4.63;2.90;;;;;;;;;;5111463;27;20399;-70
2022/06/15 03:52:37;;;;;;;4.65;3.10;;;;;;;;;;5111546;28;20020;-70
2022/06/15 03:56:59;;;;;;;6.38;2.97;;;;;;;;;;5111079;27;20393;-69
2022/06/15 03:59:26;;;;;;;7.10;3.05;;;;;;;;;;5111562;28;20016;-69
2022/06/15 04:01:52;;;;;;;5.80;3.05;;;;;;;;;;5111586;28;20027;-69
2022/06/15 04:04:18;;;;;;;5.63;3.00;;;;;;;;;;5110850;28;20415;-69
2022/06/15 04:06:44;;;;;;;5.03;2.90;;;;;;;;;;5111134;28;20045;-69
2022/06/15 04:09:11;;;;;;;6.28;3.55;;;;;;;;;;5111039;28;20032;-69
2022/06/15 04:14:22;;;;;;;6.13;2.60;;;;;;;;;;5111488;28;20047;-70
2022/06/15 04:16:53;;;;;;;6.18;2.70;;;;;;;;;;5110926;28;20032;-70
2022/06/15 04:19:20;;;;;;;6.25;2.67;;;;;;;;;;5110774;28;20019;-70
2022/06/15 04:21:46;;;;;;;4.10;2.72;;;;;;;;;;5111163;28;20530;-70
2022/06/15 04:28:17;;;;;;;4.97;2.38;;;;;;;;;;5112175;27;20397;-70
2022/06/15 04:30:43;;;;;;;5.18;2.65;;;;;;;;;;5111262;28;20028;-70
2022/06/15 04:35:24;;;;;;;3.90;2.67;;;;;;;;;;5111602;27;20119;-69
2022/06/15 04:38:14;;;;;;;6.65;3.00;;;;;;;;;;5111947;27;20384;-69
2022/06/15 04:40:40;;;;;;;4.47;2.70;;;;;;;;;;5110960;28;20125;-69
2022/06/15 04:43:07;;;;;;;4.13;2.67;;;;;;;;;;5111311;28;20094;-69
2022/06/15 04:45:34;;;;;;;4.40;2.75;;;;;;;;;;5111278;28;20054;-69
2022/06/15 04:48:01;;;;;;;6.30;2.90;;;;;;;;;;5110757;28;20022;-69
2022/06/15 04:56:13;;;;;;;4.75;2.60;;;;;;;;;;5111959;27;20388;-70
2022/06/15 04:59:55;;;;;;;5.20;2.80;;;;;;;;;;5111543;27;20389;-71
2022/06/15 05:03:17;;;;;;;5.43;2.88;;;;;;;;;;5111501;27;20385;-71
2022/06/15 05:08:40;;;;;;;6.03;2.30;;;;;;;;;;5111233;27;20393;-70
2022/06/15 05:17:11;;;;;;;7.25;2.28;;;;;;;;;;5112002;27;20453;-70
2022/06/15 05:23:25;;;;;;;3.47;2.25;;;;;;;;;;5110766;27;20385;-70
2022/06/15 05:25:51;;;;;;;6.22;2.63;;;;;;;;;;5111291;28;20035;-70
2022/06/15 05:28:18;;;;;;;5.97;3.08;;;;;;;;;;5104558;28;20028;-72
2022/06/15 05:30:44;;;;;;;5.07;2.50;;;;;;;;;;5104100;28;20035;-72
2022/06/15 05:33:10;;;;;;;5.10;2.83;;;;;;;;;;5092262;28;20020;-70
2022/06/15 05:35:37;;;;;;;5.60;2.40;;;;;;;;;;5108905;28;20039;-71
2022/06/15 05:38:03;;;;;;;3.30;2.22;;;;;;;;;;5110800;28;20096;-71
2022/06/15 05:40:29;;;;;;;6.00;2.78;;;;;;;;;;5111066;28;20024;-71
2022/06/15 05:42:55;;;;;;;7.38;2.70;;;;;;;;;;5110377;28;20454;-73
2022/06/15 05:46:20;;;;;;;4.82;2.58;;;;;;;;;;5070435;28;20433;-70
2022/06/15 05:48:46;;;;;;;;;;;;;;;;;;5053053;28;20029;-71
2022/06/15 05:51:12;;;;;;;4.75;2.38;;;;;;;;;;5069825;28;19905;-70
2022/06/15 05:55:09;;;;;;;5.65;2.80;;;;;;;;;;5111325;27;20831;-71
2022/06/15 05:57:35;;;;;;;3.63;2.00;;;;;;;;;;5107982;28;20084;-71
2022/06/15 06:00:03;;;;;;;4.90;3.00;;;;;;;;;;5111024;28;20031;-73
2022/06/15 06:04:01;;;;;;;4.28;2.13;;;;;;;;;;5110708;27;20823;-70
2022/06/15 06:06:28;;;;;;;7.50;1.88;;;;;;;;;;5110694;28;20376;-73
2022/06/15 06:09:37;;;;;;;3.97;2.03;;;;;;;;;;5110943;27;20846;-71
2022/06/15 06:13:46;;;;;;;3.20;1.77;;;;;;;;;;5110618;27;20405;-71
2022/06/15 06:16:12;;;;;;;4.95;2.22;;;;;;;;;;5110402;28;20020;-70
2022/06/15 06:18:38;;;;;;;4.22;2.20;;;;;;;;;;5110268;28;20020;-70
2022/06/15 06:21:05;;;;;;;4.50;2.13;;;;;;;;;;5110141;28;20016;-73
2022/06/15 06:23:34;;;;;;;4.45;2.20;;;;;;;;;;5110020;28;20020;-70
2022/06/15 06:27:38;;;;;;;4.63;1.80;;;;;;;;;;5109921;27;20393;-71
2022/06/15 06:30:05;;;;;;;2.80;1.75;;;;;;;;;;5106358;28;20024;-71
2022/06/15 06:32:31;;;;;;;3.00;1.70;;;;;;;;;;5107245;28;20027;-73
2022/06/15 06:34:58;;;;;;;2.58;1.85;;;;;;;;;;5107626;28;20069;-73
2022/06/15 06:37:24;;;;;;;2.80;1.75;;;;;;;;;;5107236;28;20073;-75
2022/06/15 06:39:55;;;;;;;5.63;1.70;;;;;;;;;;5106099;28;20024;-71
2022/06/15 06:42:21;;;;;;;3.30;1.90;;;;;;;;;;5108086;28;20024;-71
2022/06/15 06:45:30;;;;;;;4.30;1.65;;;;;;;;;;5115985;27;20116;-70
2022/06/15 06:47:56;;;;;;;3.83;1.60;;;;;;;;;;5106373;28;20028;-70
2022/06/15 06:50:23;;;;;;;4.63;1.85;;;;;;;;;;5091645;28;20023;-70
2022/06/15 06:52:49;;;;;;;5.30;2.30;;;;;;;;;;5109796;28;20023;-74
2022/06/15 06:55:16;;;;;;;4.47;1.88;;;;;;;;;;5109361;28;20093;-71
2022/06/15 06:57:42;;;;;;;3.58;1.80;;;;;;;;;;5102701;28;20027;-71
2022/06/15 07:00:09;;;;;;;5.25;1.85;;;;;;;;;;5093250;28;20031;-69
2022/06/15 07:02:35;;;;;;;2.45;1.67;;;;;;;;;;5089190;28;20452;-71
2022/06/15 07:07:11;;;;;;;5.30;1.70;;;;;;;;;;5088756;27;20319;-72
2022/06/15 07:09:38;;;;;;;3.47;1.55;;;;;;;;;;5090334;28;20032;-72
2022/06/15 07:16:36;;;;;;;5.10;1.67;;;;;;;;;;5059033;27;20397;-71
2022/06/15 07:19:02;;;;;;;4.03;1.70;;;;;;;;;;5048206;28;20029;-71
2022/06/15 07:21:29;;;;;;;3.97;1.90;;;;;;;;;;5047926;28;20037;-72
2022/06/15 07:24:50;;;;;;;2.70;1.77;;;;;;;;;;5151159;27;20319;-70
2022/06/15 07:27:17;;;;;;;6.30;1.95;;;;;;;;;;5150805;27;20424;-70
2022/06/15 07:29:46;;;;;;;4.07;1.80;;;;;;;;;;5149918;27;20047;-70
2022/06/15 07:34:52;;;;;;;3.88;1.60;;;;;;;;;;5111024;27;20426;-71
2022/06/15 07:37:18;;;;;;;6.65;1.67;;;;;;;;;;5110477;28;20023;-73
2022/06/15 07:39:44;;;;;;;5.45;1.85;;;;;;;;;;5110803;28;20020;-74
2022/06/15 07:42:10;;;;;;;4.60;1.67;;;;;;;;;;5107868;28;20028;-73
2022/06/15 07:45:24;;;;;;;3.25;1.75;;;;;;;;;;5104712;27;20420;-71
2022/06/15 07:50:36;;;;;;;4.18;1.58;;;;;;;;;;5088912;28;20051;-77
2022/06/15 07:55:49;;;;;;;3.35;1.70;;;;;;;;;;5102723;27;21471;-73
2022/06/15 07:59:19;;;;;;;3.22;1.73;;;;;;;;;;5108824;27;20393;-75
2022/06/15 08:03:23;;;;;;;5.35;2.17;;;;;;;;;;5106516;27;20438;-73
2022/06/15 08:05:50;;;;;;;2.58;1.45;;;;;;;;;;5098183;28;20500;-73
2022/06/15 08:08:18;;;;;;;4.65;1.60;;;;;;;;;;5103604;28;20129;-71
2022/06/15 08:12:57;;;;;;;4.35;1.98;;;;;;;;;;5104033;27;20428;-72
2022/06/15 08:15:24;;;;;;;2.17;1.48;;;;;;;;;;5093478;28;20027;-74
2022/06/15 08:17:52;;;;;;;5.85;1.95;;;;;;;;;;5108332;28;20024;-75
2022/06/15 08:20:23;;;;;;;4.00;1.67;;;;;;;;;;5108515;28;20099;-73
2022/06/15 08:24:46;;;;;;;2.90;1.58;;;;;;;;;;5114098;27;20850;-74
2022/06/15 08:27:13;;;;;;;4.10;1.55;;;;;;;;;;5110051;28;20106;-73
2022/06/15 08:29:41;;;;;;;6.25;2.05;;;;;;;;;;5100266;28;20030;-73
2022/06/15 08:32:08;;;;;;;4.63;1.48;;;;;;;;;;5107419;28;20024;-73
2022/06/15 08:34:37;;;;;;;3.58;1.23;;;;;;;;;;5109152;28;20063;-72
2022/06/15 08:37:04;;;;;;;4.20;1.50;;;;;;;;;;5065903;28;20043;-73
2022/06/15 08:39:31;;;;;;;3.05;1.58;;;;;;;;;;5089034;28;20028;-77
2022/06/15 08:42:15;;;;;;;2.45;1.13;;;;;;;;;;5088422;28;20488;-71
2022/06/15 08:44:41;;;;;;;2.63;1.38;;;;;;;;;;5102562;28;20484;-73
2022/06/15 08:47:28;;;;;;;2.60;1.60;;;;;;;;;;5108772;28;20433;-73
2022/06/15 08:50:00;;;;;;;4.32;1.38;;;;;;;;;;5093171;28;20066;-73
2022/06/15 08:52:29;;;;;;;2.42;1.17;;;;;;;;;;5089139;28;20107;-73
2022/06/15 08:56:14;;;;;;;3.30;1.60;;;;;;;;;;5107812;27;20397;-73
2022/06/15 08:59:18;;;;;;;3.42;1.60;;;;;;;;;;5107429;28;20020;-74
2022/06/15 09:02:31;;;;;;;6.97;2.53;;;;;;;;;;5117833;27;20387;-74
2022/06/15 09:04:57;;;;;;;4.53;2.53;;;;;;;;;;5109166;28;20028;-72
2022/06/15 09:07:35;;;;;;;3.50;1.77;;;;;;;;;;5106424;28;20510;-74
2022/06/15 09:10:46;;;;;;;5.63;1.98;;;;;;;;;;5066314;28;20407;-75
2022/06/15 09:13:22;;;;;;;6.60;2.08;;;;;;;;;;5066204;28;20017;-73
2022/06/15 09:18:35;;;;;;;2.92;1.48;;;;;;;;;;5091077;27;20781;-74
2022/06/15 09:22:39;;;;;;;2.90;1.45;;;;;;;;;;5058936;28;20403;-74
2022/06/15 09:27:32;;;;;;;4.22;1.40;;;;;;;;;;5087984;27;20748;-74
2022/06/15 09:30:31;;;;;;;4.18;1.33;;;;;;;;;;5097075;27;20469;-74
2022/06/15 09:34:03;;;;;;;3.05;1.30;;;;;;;;;;5093865;27;20642;-74
2022/06/15 09:36:56;;;;;;;3.35;1.40;;;;;;;;;;5087282;28;20488;-75
2022/06/15 09:41:24;;;;;;;3.67;1.63;;;;;;;;;;5130321;27;20108;-74
2022/06/15 09:44:03;;;;;;;2.88;1.13;;;;;;;;;;5109894;28;20040;-75
2022/06/15 09:46:35;;;;;;;2.47;1.30;;;;;;;;;;5110528;28;20564;-73
2022/06/15 09:49:04;;;;;;;3.67;1.23;;;;;;;;;;5099493;28;20081;-75
2022/06/15 09:51:43;;;;;;;6.38;1.80;;;;;;;;;;5089294;28;20025;-75
2022/06/15 09:54:19;;;;;;;1.98;1.20;;;;;;;;;;5089445;28;20070;-75
2022/06/15 09:56:45;;;;;;;4.78;2.13;;;;;;;;;;5092058;28;20384;-76
2022/06/15 09:59:14;;;;;;;3.67;1.30;;;;;;;;;;5099086;28;20086;-75
2022/06/15 10:01:45;;;;;;;2.83;1.27;;;;;;;;;;5085082;28;20024;-75
2022/06/15 10:04:27;;;;;;;1.80;1.10;;;;;;;;;;5102654;28;20028;-74
2022/06/15 10:08:31;;;;;;;7.18;1.77;;;;;;;;;;5067812;28;20854;-76
2022/06/15 10:10:59;;;;;;;9.00;1.88;;;;;;;;;;5068512;28;20025;-76
2022/06/15 10:13:28;;;;;;;3.10;1.33;;;;;;;;;;5068900;28;20439;-76
2022/06/15 10:16:18;;;;;;;3.17;1.70;;;;;;;;;;5060522;28;20448;-75
2022/06/15 10:20:21;;;;;;;2.67;1.20;;;;;;;;;;5101408;27;20855;-75
2022/06/15 10:22:51;;;;;;;5.38;1.30;;;;;;;;;;5100067;28;20142;-77
2022/06/15 10:25:19;;;;;;;2.50;1.20;;;;;;;;;;5097204;28;20082;-76
2022/06/15 10:27:45;;;;;;;2.22;1.27;;;;;;;;;;5109407;28;20096;-77
2022/06/15 10:30:11;;;;;;;2.58;1.25;;;;;;;;;;5108713;28;20052;-78
2022/06/15 10:32:55;;;;;;;5.18;1.42;;;;;;;;;;5103563;28;20051;-74
2022/06/15 10:37:07;;;;;;;3.17;1.42;;;;;;;;;;5112295;27;20405;-75
2022/06/15 10:39:40;;;;;;;3.60;1.27;;;;;;;;;;5110214;28;20031;-73
2022/06/15 10:42:08;;;;;;;3.05;1.50;;;;;;;;;;5104635;28;20087;-74
2022/06/15 10:44:49;;;;;;;5.15;1.50;;;;;;;;;;5107758;28;20380;-74
2022/06/15 10:47:18;;;;;;;4.70;1.25;;;;;;;;;;5109491;28;20046;-76
2022/06/15 10:49:52;;;;;;;2.67;1.45;;;;;;;;;;5129651;28;20027;-79
2022/06/15 10:52:38;;;;;;;5.75;1.50;;;;;;;;;;5129442;28;20454;-75
2022/06/15 11:03:41;;;;;;;4.10;1.33;;;;;;;;;;5090472;28;20178;-75
2022/06/15 11:06:08;;;;;;;4.43;1.80;;;;;;;;;;5088359;28;20471;-72
2022/06/15 11:08:35;;;;;;;5.13;1.23;;;;;;;;;;5089510;28;20086;-74
2022/06/15 11:11:17;;;;;;;4.07;1.55;;;;;;;;;;5089886;28;20495;-78
2022/06/15 11:13:51;;;;;;;2.05;1.05;;;;;;;;;;5097983;28;20108;-77
2022/06/15 11:19:12;;;;;;;3.53;1.30;;;;;;;;;;5109146;28;20035;-77
2022/06/15 11:21:45;;;;;;;2.58;1.20;;;;;;;;;;5108652;28;20024;-77
2022/06/15 11:24:17;;;;;;;2.97;1.50;;;;;;;;;;5108502;28;20028;-76
2022/06/15 11:26:54;;;;;;;2.58;1.50;;;;;;;;;;5109298;28;20430;-76
2022/06/15 11:29:41;;;;;;;2.10;1.10;;;;;;;;;;5109574;28;20059;-78
2022/06/15 11:32:27;;;;;;;2.90;1.13;;;;;;;;;;5110042;28;20020;-78
2022/06/15 11:35:02;;;;;;;3.47;1.25;;;;;;;;;;5110363;28;20046;-76
2022/06/15 11:37:34;;;;;;;3.33;1.90;;;;;;;;;;5109642;28;20031;-78
2022/06/15 11:40:14;;;;;;;4.18;1.60;;;;;;;;;;5107533;28;20024;-74
2022/06/15 11:42:44;;;;;;;2.17;1.30;;;;;;;;;;5102726;28;20019;-75
2022/06/15 11:45:14;;;;;;;5.15;1.88;;;;;;;;;;5097872;28;20023;-73
2022/06/15 11:47:57;;;;;;;3.42;1.30;;;;;;;;;;5087484;28;20051;-77
2022/06/15 11:50:23;;;;;;;;;;;;;;;;;;5075464;28;20090;-77
2022/06/15 11:52:52;;;;;;;3.53;1.40;;;;;;;;;;5091043;28;20352;-72
2022/06/15 11:55:21;;;;;;;2.30;1.30;;;;;;;;;;5094306;28;20024;-72
2022/06/15 11:57:50;;;;;;;2.65;1.20;;;;;;;;;;5094160;28;20028;-71
2022/06/15 12:00:23;;;;;;;2.80;1.10;;;;;;;;;;5092649;28;20120;-71
2022/06/15 12:03:08;;;;;;;4.40;1.50;;;;;;;;;;5087680;28;20111;-71
2022/06/15 12:05:37;;;;;;;3.03;1.42;;;;;;;;;;5072535;28;20035;-71
2022/06/15 12:08:03;;;;;;;10.13;2.25;;;;;;;;;;5073660;28;20020;-72
2022/06/15 12:10:45;;;;;;;4.03;1.55;;;;;;;;;;5073305;28;20028;-73
2022/06/15 12:13:18;;;;;;;4.90;1.50;;;;;;;;;;5086352;28;20127;-72
2022/06/15 12:15:59;;;;;;;3.33;1.25;;;;;;;;;;5095844;28;20036;-72
2022/06/15 12:18:38;;;;;;;4.97;2.20;;;;;;;;;;5095312;28;20032;-72
2022/06/15 12:21:16;;;;;;;6.40;1.40;;;;;;;;;;5095744;28;20024;-72
2022/06/15 12:23:43;;;;;;;3.42;1.80;;;;;;;;;;5089221;28;20059;-71
2022/06/15 12:26:09;;;;;;;4.15;1.30;;;;;;;;;;5094109;28;20115;-72
2022/06/15 12:28:52;;;;;;;6.63;1.60;;;;;;;;;;5094726;28;20065;-73
2022/06/15 12:31:22;;;;;;;6.00;1.50;;;;;;;;;;5093068;28;20024;-73
2022/06/15 12:33:57;;;;;;;2.72;1.42;;;;;;;;;;5094894;28;20089;-73
2022/06/15 12:36:28;;;;;;;2.85;1.63;;;;;;;;;;5094608;28;20051;-72
2022/06/15 12:39:09;;;;;;;2.58;1.60;;;;;;;;;;5094404;28;20024;-72
2022/06/15 12:44:24;;;;;;;2.97;1.80;;;;;;;;;;5095609;28;20059;-72
2022/06/15 12:46:54;;;;;;;2.58;1.50;;;;;;;;;;5094846;28;20052;-72
2022/06/15 12:49:35;;;;;;;3.15;1.90;;;;;;;;;;5095157;28;20016;-73
2022/06/15 12:52:11;;;;;;;2.55;1.50;;;;;;;;;;5095046;28;20028;-73
2022/06/15 12:54:37;;;;;;;2.88;1.27;;;;;;;;;;5095535;28;20027;-72
2022/06/15 12:57:09;;;;;;;3.25;1.40;;;;;;;;;;5093736;28;20484;-72
2022/06/15 12:59:58;;;;;;;4.95;1.45;;;;;;;;;;5093655;28;20024;-72
2022/06/15 13:02:43;;;;;;;4.70;1.42;;;;;;;;;;5095438;28;20502;-72
2022/06/15 13:05:26;;;;;;;4.70;1.75;;;;;;;;;;5094925;28;20028;-72
2022/06/15 13:08:11;;;;;;;4.07;1.42;;;;;;;;;;5094521;28;20034;-72
2022/06/15 13:10:38;;;;;;;4.47;1.40;;;;;;;;;;5095206;28;20032;-72
2022/06/15 13:13:05;;;;;;;4.03;1.40;;;;;;;;;;5094496;28;20066;-72
2022/06/15 13:15:51;;;;;;;5.10;1.20;;;;;;;;;;5094625;28;20040;-73
2022/06/15 13:18:19;;;;;;;2.90;1.38;;;;;;;;;;5095278;28;20044;-72
2022/06/15 13:20:48;;;;;;;2.85;1.35;;;;;;;;;;5094572;28;20062;-73
2022/06/15 13:23:17;;;;;;;2.58;1.20;;;;;;;;;;5094415;28;20040;-72
2022/06/15 13:25:54;;;;;;;2.60;1.13;;;;;;;;;;5094574;28;20032;-73
2022/06/15 13:28:47;;;;;;;4.35;1.50;;;;;;;;;;5094106;28;20353;-73
2022/06/15 13:31:33;;;;;;;4.00;1.40;;;;;;;;;;5071220;28;20039;-73
2022/06/15 13:34:01;;;;;;;3.47;1.60;;;;;;;;;;5093832;28;20028;-73
2022/06/15 13:36:27;;;;;;;8.88;1.42;;;;;;;;;;5094085;28;20044;-73
2022/06/15 13:38:53;;;;;;;4.03;1.30;;;;;;;;;;5094568;28;20468;-72
2022/06/15 13:41:25;;;;;;;3.25;1.20;;;;;;;;;;5093886;28;20028;-72
2022/06/15 13:43:51;;;;;;;;;;;;;;;;;;5094663;28;20046;-72
2022/06/15 13:46:21;;;;;;;4.45;1.30;;;;;;;;;;5093968;28;19912;-72
2022/06/15 13:48:47;;;;;;;3.08;1.65;;;;;;;;;;5093745;28;20031;-71
2022/06/15 13:51:20;;;;;;;3.75;1.45;;;;;;;;;;5093998;28;20020;-72
2022/06/15 13:53:46;;;;;;;2.70;1.35;;;;;;;;;;5094018;28;20032;-72
2022/06/15 13:56:18;;;;;;;1.90;0.98;;;;;;;;;;5093459;28;20063;-71
2022/06/15 13:58:47;;;;;;;2.33;1.10;;;;;;;;;;5093807;28;20541;-71
2022/06/15 14:01:24;;;;;;;1.98;1.02;;;;;;;;;;5093831;28;20476;-71
2022/06/15 14:04:09;;;;;;;3.17;1.10;;;;;;;;;;5092268;28;20020;-71
2022/06/15 14:06:35;;;;;;;3.85;1.50;;;;;;;;;;5093764;28;20472;-72
2022/06/15 14:09:10;;;;;;;2.60;1.25;;;;;;;;;;5093687;28;20081;-72
2022/06/15 14:11:36;;;;;;;5.28;1.40;;;;;;;;;;5093430;28;20024;-73
2022/06/15 14:14:02;;;;;;;4.82;1.33;;;;;;;;;;5093581;28;20024;-72
2022/06/15 14:16:44;;;;;;;4.72;1.35;;;;;;;;;;5093066;28;20114;-73
2022/06/15 14:19:25;;;;;;;4.10;1.25;;;;;;;;;;5093577;28;20016;-72
2022/06/15 14:22:02;;;;;;;2.30;1.10;;;;;;;;;;5093583;28;20094;-72
2022/06/15 14:24:29;;;;;;;1.88;1.15;;;;;;;;;;5093309;28;20020;-73
2022/06/15 14:26:57;;;;;;;4.05;1.27;;;;;;;;;;5093583;28;20357;-71
2022/06/15 14:29:24;;;;;;;10.38;1.70;;;;;;;;;;5093946;28;20495;-72
2022/06/15 14:31:55;;;;;;;4.28;1.73;;;;;;;;;;5093062;28;20021;-72
2022/06/15 14:34:24;;;;;;;4.10;1.23;;;;;;;;;;5092254;28;20039;-72
2022/06/15 14:36:54;;;;;;;4.60;1.20;;;;;;;;;;5093191;28;20048;-72
2022/06/15 14:39:21;;;;;;;4.38;1.45;;;;;;;;;;5093038;28;20062;-73
2022/06/15 14:41:59;;;;;;;2.95;1.23;;;;;;;;;;5093305;28;20032;-72
2022/06/15 14:44:25;;;;;;;2.20;1.02;;;;;;;;;;5092974;28;20122;-72
2022/06/15 14:47:01;;;;;;;4.78;1.27;;;;;;;;;;5093381;28;20028;-72
2022/06/15 14:49:29;;;;;;;1.48;1.10;;;;;;;;;;5093252;28;20439;-72
2022/06/15 14:52:10;;;;;;;3.10;1.10;;;;;;;;;;5092717;28;20028;-72
2022/06/15 14:54:37;;;;;;;2.10;0.90;;;;;;;;;;5093125;28;20047;-72
2022/06/15 14:57:03;;;;;;;2.22;1.25;;;;;;;;;;5093248;28;20502;-71
2022/06/15 14:59:41;;;;;;;3.53;1.00;;;;;;;;;;5092845;28;20467;-71
2022/06/15 15:02:08;;;;;;;2.72;1.23;;;;;;;;;;5093210;28;20107;-71
2022/06/15 15:04:37;;;;;;;2.50;1.27;;;;;;;;;;5091854;28;20020;-71
2022/06/15 15:08:05;;;;;;;4.30;1.30;;;;;;;;;;5092775;28;20020;-72
2022/06/15 15:09:50;;;;;;;3.55;1.27;;;;;;;;;;5092971;28;20053;-72
2022/06/15 15:12:16;;;;;;;2.15;1.08;;;;;;;;;;5091825;28;20465;-72
2022/06/15 15:15:03;;;;;;;3.80;2.10;;;;;;;;;;5092821;28;20035;-71
2022/06/15 15:17:47;;;;;;;2.22;1.25;;;;;;;;;;5091714;28;20042;-72
2022/06/15 15:20:26;;;;;;;1.83;1.25;;;;;;;;;;5092760;28;20063;-73
2022/06/15 15:22:53;;;;;;;3.55;1.25;;;;;;;;;;5095074;28;20077;-73
2022/06/15 15:25:20;;;;;;;4.57;1.70;;;;;;;;;;5096736;28;20028;-72
2022/06/15 15:37:34;;;;;;;3.13;1.25;;;;;;;;;;5096272;28;20214;-72
2022/06/15 15:39:09;;;;;;;2.83;1.30;;;;;;;;;;5096355;28;20032;-72
2022/06/15 15:41:35;;;;;;;2.53;1.10;;;;;;;;;;5096010;28;20070;-72
2022/06/15 15:44:04;;;;;;;2.72;1.20;;;;;;;;;;5096365;28;20031;-72
2022/06/15 15:46:30;;;;;;;8.82;1.13;;;;;;;;;;5096405;28;20016;-73
2022/06/15 15:48:57;;;;;;;1.52;0.93;;;;;;;;;;5095866;28;20502;-72
2022/06/15 15:51:23;;;;;;;1.95;1.10;;;;;;;;;;5096347;28;20031;-73
2022/06/15 15:53:50;;;;;;;2.15;1.10;;;;;;;;;;5096381;28;20472;-73
2022/06/15 15:56:16;;;;;;;1.08;0.90;;;;;;;;;;5095794;28;20043;-74
2022/06/15 15:58:46;;;;;;;3.03;1.17;;;;;;;;;;5096489;28;20051;-72
2022/06/15 16:01:13;;;;;;;2.28;1.02;;;;;;;;;;5096476;28;20020;-70
2022/06/15 16:03:40;;;;;;;3.35;1.30;;;;;;;;;;5096035;28;20078;-71
2022/06/15 16:06:06;;;;;;;2.15;1.10;;;;;;;;;;5096060;28;20543;-72
2022/06/15 16:08:33;;;;;;;5.07;1.50;;;;;;;;;;5096098;28;20095;-72
2022/06/15 16:10:59;;;;;;;3.72;1.20;;;;;;;;;;5095623;28;20031;-69
2022/06/15 16:13:26;;;;;;;6.55;1.73;;;;;;;;;;5095820;28;20028;-73
2022/06/15 16:15:57;;;;;;;3.17;1.13;;;;;;;;;;5095447;28;20085;-70
2022/06/15 16:18:24;;;;;;;3.13;1.35;;;;;;;;;;5096110;28;20020;-74
2022/06/15 16:20:51;;;;;;;2.38;1.50;;;;;;;;;;5095787;28;20027;-72
2022/06/15 16:23:21;;;;;;;3.30;1.50;;;;;;;;;;5095265;28;20028;-72
2022/06/15 16:25:47;;;;;;;3.53;1.65;;;;;;;;;;5095704;28;20476;-72
2022/06/15 16:28:14;;;;;;;2.47;1.23;;;;;;;;;;5095374;28;20103;-71
2022/06/15 16:30:40;;;;;;;4.40;1.80;;;;;;;;;;5095097;28;20020;-72
2022/06/15 16:33:07;;;;;;;2.85;1.20;;;;;;;;;;5095457;28;20052;-71
2022/06/15 16:35:37;;;;;;;3.80;1.40;;;;;;;;;;5095258;28;20055;-71
2022/06/15 16:38:04;;;;;;;3.03;1.20;;;;;;;;;;5094924;28;20487;-71
2022/06/15 16:40:30;;;;;;;3.78;1.10;;;;;;;;;;5095257;28;20047;-71
2022/06/15 16:42:56;;;;;;;2.83;1.38;;;;;;;;;;5095230;28;20021;-71
2022/06/15 16:45:22;;;;;;;3.53;1.60;;;;;;;;;;5094892;28;20057;-71
2022/06/15 16:50:39;;;;;;;1.70;1.15;;;;;;;;;;5111152;27;20469;-70
2022/06/15 16:54:46;;;;;;;2.10;1.30;;;;;;;;;;5111349;27;20396;-70
2022/06/15 16:57:12;;;;;;;2.08;1.17;;;;;;;;;;5111112;28;20453;-71
2022/06/15 17:01:31;;;;;;;3.33;1.50;;;;;;;;;;5111161;27;20392;-71
2022/06/15 17:03:57;;;;;;;3.05;1.67;;;;;;;;;;5111511;28;20043;-73
2022/06/15 17:06:24;;;;;;;2.70;1.20;;;;;;;;;;5111124;28;20031;-72
2022/06/15 17:08:50;;;;;;;3.80;1.20;;;;;;;;;;5111188;28;20430;-71
2022/06/15 17:11:17;;;;;;;3.55;1.88;;;;;;;;;;5111062;28;20055;-70
2022/06/15 17:13:44;;;;;;;3.80;1.90;;;;;;;;;;5110616;28;20024;-71
2022/06/15 17:16:10;;;;;;;2.70;1.13;;;;;;;;;;5110957;28;20051;-74
2022/06/15 17:18:36;;;;;;;4.15;1.92;;;;;;;;;;5111386;28;20016;-72
2022/06/15 17:21:04;;;;;;;4.40;1.52;;;;;;;;;;5110681;28;20408;-72
2022/06/15 17:24:08;;;;;;;4.70;1.98;;;;;;;;;;5112030;27;20393;-71
2022/06/15 17:28:29;;;;;;;3.40;1.65;;;;;;;;;;5111272;27;20392;-71
2022/06/15 17:32:01;;;;;;;2.10;1.20;;;;;;;;;;5111395;27;20454;-69
2022/06/15 17:34:28;;;;;;;3.13;1.13;;;;;;;;;;5110678;28;20487;-71
2022/06/15 17:36:55;;;;;;;4.40;2.20;;;;;;;;;;5111048;28;20376;-71
2022/06/15 17:39:21;;;;;;;2.58;1.38;;;;;;;;;;5111235;28;20070;-72